Terminal Aerodrome Forecast
Issued by NWS

Home | Current Version | Previous Version | Text Only | Print | Product List | Glossary On
Versions: 1 2 3 4 5 6 7 8 9 10 11 12 13 14 15 16
000
FTUS43 KDMX 301738
TAFFOD
TAF
KFOD 301738Z 3018/3118 17010KT P6SM SCT250
     FM302000 19010KT P6SM VCTS BKN040CB BKN110
     FM310300 17007KT 5SM -TSRA OVC040CB
     FM310800 19007KT P6SM VCSH BKN050
     FM311300 21008KT 5SM -TSRA OVC050CB
     FM311600 24006KT 5SM BR VCTS OVC040CB=

USA.gov is the U.S. government's official web portal to all federal, state and local government web resources and services.